sensor_id;sensor_type;location;lat;lon;timestamp;P1;durP1;ratioP1;P2;durP2;ratioP2
85175;SDS011;75548;42.444;27.488;2024-02-04T00:02:47;10.02;;;7.00;;
85175;SDS011;75548;42.444;27.488;2024-02-04T00:06:12;7.03;;;4.65;;
85175;SDS011;75548;42.444;27.488;2024-02-04T00:09:37;7.43;;;4.45;;
85175;SDS011;75548;42.444;27.488;2024-02-04T00:13:03;9.23;;;4.75;;
85175;SDS011;75548;42.444;27.488;2024-02-04T00:16:28;9.10;;;4.75;;
85175;SDS011;75548;42.444;27.488;2024-02-04T00:19:54;7.18;;;4.88;;
85175;SDS011;75548;42.444;27.488;2024-02-04T00:23:19;6.60;;;4.53;;
85175;SDS011;75548;42.444;27.488;2024-02-04T00:26:44;7.47;;;5.65;;
85175;SDS011;75548;42.444;27.488;2024-02-04T00:30:10;10.40;;;6.47;;
85175;SDS011;75548;42.444;27.488;2024-02-04T00:33:35;10.27;;;4.80;;
85175;SDS011;75548;42.444;27.488;2024-02-04T00:37:01;13.10;;;5.82;;
85175;SDS011;75548;42.444;27.488;2024-02-04T00:40:26;8.45;;;5.72;;
85175;SDS011;75548;42.444;27.488;2024-02-04T00:43:51;7.20;;;4.40;;
85175;SDS011;75548;42.444;27.488;2024-02-04T00:47:17;7.43;;;4.35;;
85175;SDS011;75548;42.444;27.488;2024-02-04T00:50:42;6.93;;;4.65;;
85175;SDS011;75548;42.444;27.488;2024-02-04T00:54:08;13.45;;;8.63;;
85175;SDS011;75548;42.444;27.488;2024-02-04T00:57:33;9.68;;;6.78;;
85175;SDS011;75548;42.444;27.488;2024-02-04T01:00:58;10.38;;;6.13;;
85175;SDS011;75548;42.444;27.488;2024-02-04T01:04:24;6.93;;;4.28;;
85175;SDS011;75548;42.444;27.488;2024-02-04T01:07:49;6.82;;;5.22;;
85175;SDS011;75548;42.444;27.488;2024-02-04T01:11:14;7.93;;;5.15;;
85175;SDS011;75548;42.444;27.488;2024-02-04T01:14:40;10.32;;;5.10;;
85175;SDS011;75548;42.444;27.488;2024-02-04T01:18:05;8.27;;;4.97;;
85175;SDS011;75548;42.444;27.488;2024-02-04T01:21:31;9.85;;;7.07;;
85175;SDS011;75548;42.444;27.488;2024-02-04T01:24:56;9.57;;;5.95;;
85175;SDS011;75548;42.444;27.488;2024-02-04T01:28:21;10.80;;;5.32;;
85175;SDS011;75548;42.444;27.488;2024-02-04T01:31:47;7.97;;;4.57;;
85175;SDS011;75548;42.444;27.488;2024-02-04T01:35:12;12.60;;;5.85;;
85175;SDS011;75548;42.444;27.488;2024-02-04T01:38:38;8.88;;;5.47;;
85175;SDS011;75548;42.444;27.488;2024-02-04T01:42:03;10.80;;;5.43;;
85175;SDS011;75548;42.444;27.488;2024-02-04T01:45:28;8.10;;;5.05;;
85175;SDS011;75548;42.444;27.488;2024-02-04T01:48:54;11.98;;;9.68;;
85175;SDS011;75548;42.444;27.488;2024-02-04T01:52:19;11.07;;;7.15;;
85175;SDS011;75548;42.444;27.488;2024-02-04T01:55:45;7.68;;;6.03;;
85175;SDS011;75548;42.444;27.488;2024-02-04T01:59:10;10.82;;;5.97;;
85175;SDS011;75548;42.444;27.488;2024-02-04T02:02:39;8.98;;;5.28;;
85175;SDS011;75548;42.444;27.488;2024-02-04T02:06:01;8.88;;;4.55;;
85175;SDS011;75548;42.444;27.488;2024-02-04T02:09:27;9.48;;;5.55;;
85175;SDS011;75548;42.444;27.488;2024-02-04T02:12:56;8.52;;;5.30;;
85175;SDS011;75548;42.444;27.488;2024-02-04T02:16:23;7.70;;;5.15;;
85175;SDS011;75548;42.444;27.488;2024-02-04T02:20:12;7.97;;;5.25;;
85175;SDS011;75548;42.444;27.488;2024-02-04T02:23:36;8.35;;;4.93;;
85175;SDS011;75548;42.444;27.488;2024-02-04T02:26:43;8.00;;;5.65;;
85175;SDS011;75548;42.444;27.488;2024-02-04T02:30:09;6.38;;;4.78;;
85175;SDS011;75548;42.444;27.488;2024-02-04T02:33:34;7.47;;;4.60;;
85175;SDS011;75548;42.444;27.488;2024-02-04T02:43:27;11.65;;;7.90;;
85175;SDS011;75548;42.444;27.488;2024-02-04T02:46:52;7.10;;;4.60;;
85175;SDS011;75548;42.444;27.488;2024-02-04T02:50:17;8.80;;;4.22;;
85175;SDS011;75548;42.444;27.488;2024-02-04T02:53:43;9.57;;;4.85;;
85175;SDS011;75548;42.444;27.488;2024-02-04T02:57:21;10.35;;;5.82;;
85175;SDS011;75548;42.444;27.488;2024-02-04T03:00:47;9.88;;;6.50;;
85175;SDS011;75548;42.444;27.488;2024-02-04T03:04:12;10.70;;;7.40;;
85175;SDS011;75548;42.444;27.488;2024-02-04T03:07:38;10.90;;;6.80;;
85175;SDS011;75548;42.444;27.488;2024-02-04T03:11:03;15.45;;;7.47;;
85175;SDS011;75548;42.444;27.488;2024-02-04T03:14:30;13.20;;;7.72;;
85175;SDS011;75548;42.444;27.488;2024-02-04T03:17:54;10.27;;;5.45;;
85175;SDS011;75548;42.444;27.488;2024-02-04T03:21:20;8.30;;;4.68;;
85175;SDS011;75548;42.444;27.488;2024-02-04T03:24:45;7.57;;;4.78;;
85175;SDS011;75548;42.444;27.488;2024-02-04T03:28:11;8.63;;;5.53;;
85175;SDS011;75548;42.444;27.488;2024-02-04T03:31:36;8.40;;;5.32;;
85175;SDS011;75548;42.444;27.488;2024-02-04T03:35:02;8.57;;;6.45;;
85175;SDS011;75548;42.444;27.488;2024-02-04T03:38:27;9.05;;;6.68;;
85175;SDS011;75548;42.444;27.488;2024-02-04T03:41:53;10.18;;;6.68;;
85175;SDS011;75548;42.444;27.488;2024-02-04T03:45:18;8.43;;;6.00;;
85175;SDS011;75548;42.444;27.488;2024-02-04T03:48:44;9.68;;;7.60;;
85175;SDS011;75548;42.444;27.488;2024-02-04T03:52:09;14.65;;;9.60;;
85175;SDS011;75548;42.444;27.488;2024-02-04T03:55:35;11.02;;;6.78;;
85175;SDS011;75548;42.444;27.488;2024-02-04T03:59:01;9.70;;;6.32;;
85175;SDS011;75548;42.444;27.488;2024-02-04T04:02:26;11.52;;;7.03;;
85175;SDS011;75548;42.444;27.488;2024-02-04T04:05:53;10.00;;;6.68;;
85175;SDS011;75548;42.444;27.488;2024-02-04T04:09:17;11.00;;;6.05;;
85175;SDS011;75548;42.444;27.488;2024-02-04T04:12:42;8.48;;;5.35;;
85175;SDS011;75548;42.444;27.488;2024-02-04T04:16:08;9.55;;;5.50;;
85175;SDS011;75548;42.444;27.488;2024-02-04T04:19:33;10.35;;;5.53;;
85175;SDS011;75548;42.444;27.488;2024-02-04T04:22:58;10.07;;;5.93;;
85175;SDS011;75548;42.444;27.488;2024-02-04T04:26:24;10.43;;;6.55;;
85175;SDS011;75548;42.444;27.488;2024-02-04T04:29:49;14.10;;;9.65;;
85175;SDS011;75548;42.444;27.488;2024-02-04T04:33:14;9.50;;;4.82;;
85175;SDS011;75548;42.444;27.488;2024-02-04T04:36:40;8.40;;;5.70;;
85175;SDS011;75548;42.444;27.488;2024-02-04T04:40:05;9.43;;;5.90;;
85175;SDS011;75548;42.444;27.488;2024-02-04T04:43:31;8.68;;;4.85;;
85175;SDS011;75548;42.444;27.488;2024-02-04T04:46:56;8.35;;;5.60;;
85175;SDS011;75548;42.444;27.488;2024-02-04T04:50:22;7.68;;;5.07;;
85175;SDS011;75548;42.444;27.488;2024-02-04T04:53:47;10.88;;;7.05;;
85175;SDS011;75548;42.444;27.488;2024-02-04T04:57:12;10.75;;;7.70;;
85175;SDS011;75548;42.444;27.488;2024-02-04T05:00:38;9.90;;;8.05;;
85175;SDS011;75548;42.444;27.488;2024-02-04T05:04:03;9.65;;;5.63;;
85175;SDS011;75548;42.444;27.488;2024-02-04T05:07:29;7.13;;;5.03;;
85175;SDS011;75548;42.444;27.488;2024-02-04T05:10:54;7.68;;;5.05;;
85175;SDS011;75548;42.444;27.488;2024-02-04T05:14:19;8.57;;;5.60;;
85175;SDS011;75548;42.444;27.488;2024-02-04T05:17:45;13.18;;;7.88;;
85175;SDS011;75548;42.444;27.488;2024-02-04T05:21:10;12.23;;;8.35;;
85175;SDS011;75548;42.444;27.488;2024-02-04T05:24:36;15.25;;;8.95;;
85175;SDS011;75548;42.444;27.488;2024-02-04T05:28:01;10.57;;;7.63;;
85175;SDS011;75548;42.444;27.488;2024-02-04T05:31:26;15.27;;;9.73;;
85175;SDS011;75548;42.444;27.488;2024-02-04T05:34:52;15.93;;;10.45;;
85175;SDS011;75548;42.444;27.488;2024-02-04T05:38:17;14.85;;;9.80;;
85175;SDS011;75548;42.444;27.488;2024-02-04T05:41:43;14.60;;;7.85;;
85175;SDS011;75548;42.444;27.488;2024-02-04T05:45:08;10.15;;;6.82;;
85175;SDS011;75548;42.444;27.488;2024-02-04T05:48:34;11.35;;;6.70;;
85175;SDS011;75548;42.444;27.488;2024-02-04T05:51:59;11.23;;;7.20;;
85175;SDS011;75548;42.444;27.488;2024-02-04T05:55:24;13.20;;;7.95;;
85175;SDS011;75548;42.444;27.488;2024-02-04T05:58:50;16.30;;;8.95;;
85175;SDS011;75548;42.444;27.488;2024-02-04T06:02:15;20.30;;;9.77;;
85175;SDS011;75548;42.444;27.488;2024-02-04T06:05:40;12.07;;;7.65;;
85175;SDS011;75548;42.444;27.488;2024-02-04T06:09:06;12.68;;;6.32;;
85175;SDS011;75548;42.444;27.488;2024-02-04T06:12:31;8.38;;;4.68;;
85175;SDS011;75548;42.444;27.488;2024-02-04T06:15:57;11.68;;;6.88;;
85175;SDS011;75548;42.444;27.488;2024-02-04T06:19:22;12.98;;;6.43;;
85175;SDS011;75548;42.444;27.488;2024-02-04T06:22:47;10.98;;;6.90;;
85175;SDS011;75548;42.444;27.488;2024-02-04T06:26:13;9.60;;;5.95;;
85175;SDS011;75548;42.444;27.488;2024-02-04T06:29:38;9.23;;;5.28;;
85175;SDS011;75548;42.444;27.488;2024-02-04T06:33:04;11.23;;;6.53;;
85175;SDS011;75548;42.444;27.488;2024-02-04T06:36:29;10.52;;;6.82;;
85175;SDS011;75548;42.444;27.488;2024-02-04T06:39:54;9.27;;;6.30;;
85175;SDS011;75548;42.444;27.488;2024-02-04T06:43:20;10.82;;;5.50;;
85175;SDS011;75548;42.444;27.488;2024-02-04T06:46:45;8.75;;;6.70;;
85175;SDS011;75548;42.444;27.488;2024-02-04T06:50:11;9.60;;;6.40;;
85175;SDS011;75548;42.444;27.488;2024-02-04T06:53:36;9.35;;;5.72;;
85175;SDS011;75548;42.444;27.488;2024-02-04T06:57:02;9.80;;;6.25;;
85175;SDS011;75548;42.444;27.488;2024-02-04T07:00:27;10.18;;;6.68;;
85175;SDS011;75548;42.444;27.488;2024-02-04T07:03:52;15.18;;;7.82;;
85175;SDS011;75548;42.444;27.488;2024-02-04T07:07:18;15.27;;;9.70;;
85175;SDS011;75548;42.444;27.488;2024-02-04T07:10:43;14.60;;;9.73;;
85175;SDS011;75548;42.444;27.488;2024-02-04T07:14:09;15.40;;;9.35;;
85175;SDS011;75548;42.444;27.488;2024-02-04T07:17:34;15.50;;;9.95;;
85175;SDS011;75548;42.444;27.488;2024-02-04T07:20:59;16.45;;;12.02;;
85175;SDS011;75548;42.444;27.488;2024-02-04T07:24:25;13.20;;;9.65;;
85175;SDS011;75548;42.444;27.488;2024-02-04T07:27:50;15.68;;;7.72;;
85175;SDS011;75548;42.444;27.488;2024-02-04T07:31:16;9.70;;;6.45;;
85175;SDS011;75548;42.444;27.488;2024-02-04T07:34:41;12.95;;;7.93;;
85175;SDS011;75548;42.444;27.488;2024-02-04T07:37:49;12.90;;;6.60;;
85175;SDS011;75548;42.444;27.488;2024-02-04T07:40:15;10.90;;;7.53;;
85175;SDS011;75548;42.444;27.488;2024-02-04T07:43:40;10.73;;;7.90;;
85175;SDS011;75548;42.444;27.488;2024-02-04T07:47:05;17.45;;;8.73;;
85175;SDS011;75548;42.444;27.488;2024-02-04T07:50:31;9.57;;;7.10;;
85175;SDS011;75548;42.444;27.488;2024-02-04T07:53:56;11.63;;;6.88;;
85175;SDS011;75548;42.444;27.488;2024-02-04T07:57:22;16.75;;;9.95;;
85175;SDS011;75548;42.444;27.488;2024-02-04T08:00:47;19.42;;;14.35;;
85175;SDS011;75548;42.444;27.488;2024-02-04T08:04:12;18.85;;;10.80;;
85175;SDS011;75548;42.444;27.488;2024-02-04T08:07:38;15.68;;;12.00;;
85175;SDS011;75548;42.444;27.488;2024-02-04T08:11:03;15.13;;;9.45;;
85175;SDS011;75548;42.444;27.488;2024-02-04T08:14:29;19.17;;;11.93;;
85175;SDS011;75548;42.444;27.488;2024-02-04T08:17:54;19.92;;;11.73;;
85175;SDS011;75548;42.444;27.488;2024-02-04T08:21:19;13.88;;;8.20;;
85175;SDS011;75548;42.444;27.488;2024-02-04T08:24:45;12.07;;;6.63;;
85175;SDS011;75548;42.444;27.488;2024-02-04T08:28:10;10.15;;;6.30;;
85175;SDS011;75548;42.444;27.488;2024-02-04T08:31:36;9.38;;;6.15;;
85175;SDS011;75548;42.444;27.488;2024-02-04T08:35:01;9.52;;;5.18;;
85175;SDS011;75548;42.444;27.488;2024-02-04T08:38:26;9.45;;;7.35;;
85175;SDS011;75548;42.444;27.488;2024-02-04T08:41:52;8.30;;;5.22;;
85175;SDS011;75548;42.444;27.488;2024-02-04T08:45:17;7.90;;;5.53;;
85175;SDS011;75548;42.444;27.488;2024-02-04T08:48:43;8.07;;;4.97;;
85175;SDS011;75548;42.444;27.488;2024-02-04T08:52:08;9.98;;;4.60;;
85175;SDS011;75548;42.444;27.488;2024-02-04T08:55:33;19.58;;;10.73;;
85175;SDS011;75548;42.444;27.488;2024-02-04T08:59:14;18.58;;;10.15;;
85175;SDS011;75548;42.444;27.488;2024-02-04T09:02:39;8.35;;;5.75;;
85175;SDS011;75548;42.444;27.488;2024-02-04T09:06:05;10.25;;;6.30;;
85175;SDS011;75548;42.444;27.488;2024-02-04T09:09:30;7.72;;;5.90;;
85175;SDS011;75548;42.444;27.488;2024-02-04T09:12:56;12.18;;;7.00;;
85175;SDS011;75548;42.444;27.488;2024-02-04T09:16:21;8.43;;;5.50;;
85175;SDS011;75548;42.444;27.488;2024-02-04T09:19:47;8.98;;;5.32;;
85175;SDS011;75548;42.444;27.488;2024-02-04T09:23:12;7.28;;;5.30;;
85175;SDS011;75548;42.444;27.488;2024-02-04T09:26:37;8.25;;;5.03;;
85175;SDS011;75548;42.444;27.488;2024-02-04T09:30:03;9.00;;;5.47;;
85175;SDS011;75548;42.444;27.488;2024-02-04T09:33:28;7.55;;;4.72;;
85175;SDS011;75548;42.444;27.488;2024-02-04T09:36:54;26.50;;;11.52;;
85175;SDS011;75548;42.444;27.488;2024-02-04T09:40:19;49.53;;;18.85;;
85175;SDS011;75548;42.444;27.488;2024-02-04T09:43:45;46.22;;;17.42;;
85175;SDS011;75548;42.444;27.488;2024-02-04T09:47:10;51.08;;;20.25;;
85175;SDS011;75548;42.444;27.488;2024-02-04T09:50:35;23.60;;;11.55;;
85175;SDS011;75548;42.444;27.488;2024-02-04T09:54:03;33.00;;;14.70;;
85175;SDS011;75548;42.444;27.488;2024-02-04T09:57:26;15.45;;;7.20;;
85175;SDS011;75548;42.444;27.488;2024-02-04T10:00:52;10.30;;;7.68;;
85175;SDS011;75548;42.444;27.488;2024-02-04T10:04:17;9.05;;;5.57;;
85175;SDS011;75548;42.444;27.488;2024-02-04T10:07:42;9.43;;;6.63;;
85175;SDS011;75548;42.444;27.488;2024-02-04T10:11:08;9.13;;;5.10;;
85175;SDS011;75548;42.444;27.488;2024-02-04T10:14:33;9.35;;;5.70;;
85175;SDS011;75548;42.444;27.488;2024-02-04T10:17:59;7.28;;;4.97;;
85175;SDS011;75548;42.444;27.488;2024-02-04T10:21:24;7.25;;;4.80;;
85175;SDS011;75548;42.444;27.488;2024-02-04T10:24:49;14.73;;;8.77;;
85175;SDS011;75548;42.444;27.488;2024-02-04T10:28:15;7.05;;;5.45;;
85175;SDS011;75548;42.444;27.488;2024-02-04T10:31:40;7.13;;;5.00;;
85175;SDS011;75548;42.444;27.488;2024-02-04T10:35:06;4.88;;;3.30;;
85175;SDS011;75548;42.444;27.488;2024-02-04T10:38:31;5.72;;;4.43;;
85175;SDS011;75548;42.444;27.488;2024-02-04T10:41:59;7.22;;;4.65;;
85175;SDS011;75548;42.444;27.488;2024-02-04T10:45:22;5.85;;;4.93;;
85175;SDS011;75548;42.444;27.488;2024-02-04T10:48:55;8.65;;;4.78;;
85175;SDS011;75548;42.444;27.488;2024-02-04T10:52:15;7.43;;;4.60;;
85175;SDS011;75548;42.444;27.488;2024-02-04T10:55:41;7.65;;;4.68;;
85175;SDS011;75548;42.444;27.488;2024-02-04T10:58:08;8.38;;;4.68;;
85175;SDS011;75548;42.444;27.488;2024-02-04T11:01:33;5.32;;;4.03;;
85175;SDS011;75548;42.444;27.488;2024-02-04T11:04:59;6.65;;;4.47;;
85175;SDS011;75548;42.444;27.488;2024-02-04T11:08:24;7.07;;;5.53;;
85175;SDS011;75548;42.444;27.488;2024-02-04T11:11:50;5.80;;;4.00;;
85175;SDS011;75548;42.444;27.488;2024-02-04T11:15:15;5.45;;;3.80;;
85175;SDS011;75548;42.444;27.488;2024-02-04T11:18:58;8.20;;;4.18;;
85175;SDS011;75548;42.444;27.488;2024-02-04T11:25:44;5.13;;;3.70;;
85175;SDS011;75548;42.444;27.488;2024-02-04T11:29:09;5.38;;;3.80;;
85175;SDS011;75548;42.444;27.488;2024-02-04T11:32:34;6.20;;;3.70;;
85175;SDS011;75548;42.444;27.488;2024-02-04T11:35:59;5.93;;;4.15;;
85175;SDS011;75548;42.444;27.488;2024-02-04T11:39:27;5.28;;;3.90;;
85175;SDS011;75548;42.444;27.488;2024-02-04T11:43:03;6.40;;;3.42;;
85175;SDS011;75548;42.444;27.488;2024-02-04T11:46:20;5.20;;;4.18;;
85175;SDS011;75548;42.444;27.488;2024-02-04T11:49:53;5.60;;;4.60;;
85175;SDS011;75548;42.444;27.488;2024-02-04T11:53:12;8.95;;;4.05;;
85175;SDS011;75548;42.444;27.488;2024-02-04T11:56:37;6.30;;;3.67;;
85175;SDS011;75548;42.444;27.488;2024-02-04T12:00:02;7.13;;;5.15;;
85175;SDS011;75548;42.444;27.488;2024-02-04T12:03:28;5.63;;;4.07;;
85175;SDS011;75548;42.444;27.488;2024-02-04T12:06:53;5.93;;;4.15;;
85175;SDS011;75548;42.444;27.488;2024-02-04T12:10:18;5.72;;;4.07;;
85175;SDS011;75548;42.444;27.488;2024-02-04T12:13:44;5.25;;;4.03;;
85175;SDS011;75548;42.444;27.488;2024-02-04T12:17:10;5.60;;;4.25;;
85175;SDS011;75548;42.444;27.488;2024-02-04T12:20:35;5.47;;;4.03;;
85175;SDS011;75548;42.444;27.488;2024-02-04T12:24:00;9.10;;;4.97;;
85175;SDS011;75548;42.444;27.488;2024-02-04T12:27:26;5.25;;;4.35;;
85175;SDS011;75548;42.444;27.488;2024-02-04T12:30:53;5.10;;;3.72;;
85175;SDS011;75548;42.444;27.488;2024-02-04T12:34:21;11.40;;;7.57;;
85175;SDS011;75548;42.444;27.488;2024-02-04T12:37:53;11.57;;;5.88;;
85175;SDS011;75548;42.444;27.488;2024-02-04T12:41:18;5.80;;;3.72;;
85175;SDS011;75548;42.444;27.488;2024-02-04T12:44:44;6.40;;;4.75;;
85175;SDS011;75548;42.444;27.488;2024-02-04T12:48:09;7.10;;;5.00;;
85175;SDS011;75548;42.444;27.488;2024-02-04T12:51:34;7.57;;;5.05;;
85175;SDS011;75548;42.444;27.488;2024-02-04T12:55:00;7.60;;;5.13;;
85175;SDS011;75548;42.444;27.488;2024-02-04T12:58:25;5.65;;;4.65;;
85175;SDS011;75548;42.444;27.488;2024-02-04T13:01:51;6.72;;;4.93;;
85175;SDS011;75548;42.444;27.488;2024-02-04T13:05:22;5.30;;;3.95;;
85175;SDS011;75548;42.444;27.488;2024-02-04T13:08:47;6.65;;;5.18;;
85175;SDS011;75548;42.444;27.488;2024-02-04T13:12:14;7.63;;;5.03;;
85175;SDS011;75548;42.444;27.488;2024-02-04T13:15:44;5.63;;;4.22;;
85175;SDS011;75548;42.444;27.488;2024-02-04T13:19:10;5.95;;;3.42;;
85175;SDS011;75548;42.444;27.488;2024-02-04T13:22:38;7.13;;;5.70;;
85175;SDS011;75548;42.444;27.488;2024-02-04T13:26:04;6.78;;;5.03;;
85175;SDS011;75548;42.444;27.488;2024-02-04T13:29:29;8.38;;;5.07;;
85175;SDS011;75548;42.444;27.488;2024-02-04T13:32:55;8.00;;;5.20;;
85175;SDS011;75548;42.444;27.488;2024-02-04T13:36:20;10.30;;;6.72;;
85175;SDS011;75548;42.444;27.488;2024-02-04T13:39:46;8.73;;;5.80;;
85175;SDS011;75548;42.444;27.488;2024-02-04T13:43:11;12.30;;;7.85;;
85175;SDS011;75548;42.444;27.488;2024-02-04T13:46:37;10.98;;;6.88;;
85175;SDS011;75548;42.444;27.488;2024-02-04T13:50:02;6.55;;;5.03;;
85175;SDS011;75548;42.444;27.488;2024-02-04T13:53:27;6.00;;;4.68;;
85175;SDS011;75548;42.444;27.488;2024-02-04T13:56:53;6.88;;;4.53;;
85175;SDS011;75548;42.444;27.488;2024-02-04T14:00:18;6.70;;;4.53;;
85175;SDS011;75548;42.444;27.488;2024-02-04T14:03:44;5.40;;;3.60;;
85175;SDS011;75548;42.444;27.488;2024-02-04T14:07:09;6.53;;;4.35;;
85175;SDS011;75548;42.444;27.488;2024-02-04T14:10:34;8.07;;;4.85;;
85175;SDS011;75548;42.444;27.488;2024-02-04T14:14:00;6.22;;;4.30;;
85175;SDS011;75548;42.444;27.488;2024-02-04T14:17:25;5.72;;;4.45;;
85175;SDS011;75548;42.444;27.488;2024-02-04T14:20:51;7.15;;;4.70;;
85175;SDS011;75548;42.444;27.488;2024-02-04T14:24:16;6.47;;;4.78;;
85175;SDS011;75548;42.444;27.488;2024-02-04T14:27:41;6.13;;;4.72;;
85175;SDS011;75548;42.444;27.488;2024-02-04T14:31:07;4.97;;;4.22;;
85175;SDS011;75548;42.444;27.488;2024-02-04T14:34:32;6.15;;;4.55;;
85175;SDS011;75548;42.444;27.488;2024-02-04T14:37:57;5.13;;;3.70;;
85175;SDS011;75548;42.444;27.488;2024-02-04T14:41:23;5.22;;;3.65;;
85175;SDS011;75548;42.444;27.488;2024-02-04T14:44:48;5.95;;;4.57;;
85175;SDS011;75548;42.444;27.488;2024-02-04T14:48:14;7.50;;;3.92;;
85175;SDS011;75548;42.444;27.488;2024-02-04T14:51:39;7.95;;;4.97;;
85175;SDS011;75548;42.444;27.488;2024-02-04T14:55:05;4.85;;;3.15;;
85175;SDS011;75548;42.444;27.488;2024-02-04T14:58:30;5.75;;;4.68;;
85175;SDS011;75548;42.444;27.488;2024-02-04T15:01:55;5.95;;;5.35;;
85175;SDS011;75548;42.444;27.488;2024-02-04T15:05:21;5.78;;;3.95;;
85175;SDS011;75548;42.444;27.488;2024-02-04T15:08:46;5.93;;;4.30;;
85175;SDS011;75548;42.444;27.488;2024-02-04T15:12:12;4.80;;;3.97;;
85175;SDS011;75548;42.444;27.488;2024-02-04T15:15:37;5.75;;;4.25;;
85175;SDS011;75548;42.444;27.488;2024-02-04T15:19:03;4.78;;;3.65;;
85175;SDS011;75548;42.444;27.488;2024-02-04T15:22:31;6.60;;;4.15;;
85175;SDS011;75548;42.444;27.488;2024-02-04T15:25:57;6.57;;;3.58;;
85175;SDS011;75548;42.444;27.488;2024-02-04T15:29:22;5.65;;;4.25;;
85175;SDS011;75548;42.444;27.488;2024-02-04T15:32:48;7.45;;;4.10;;
85175;SDS011;75548;42.444;27.488;2024-02-04T15:36:13;5.63;;;3.90;;
85175;SDS011;75548;42.444;27.488;2024-02-04T15:39:39;5.70;;;3.92;;
85175;SDS011;75548;42.444;27.488;2024-02-04T15:43:04;7.10;;;5.15;;
85175;SDS011;75548;42.444;27.488;2024-02-04T15:46:29;5.95;;;4.30;;
85175;SDS011;75548;42.444;27.488;2024-02-04T15:49:55;7.85;;;5.32;;
85175;SDS011;75548;42.444;27.488;2024-02-04T15:53:20;6.90;;;6.10;;
85175;SDS011;75548;42.444;27.488;2024-02-04T15:56:48;5.47;;;4.53;;
85175;SDS011;75548;42.444;27.488;2024-02-04T16:00:11;8.48;;;4.85;;
85175;SDS011;75548;42.444;27.488;2024-02-04T16:03:37;6.20;;;4.53;;
85175;SDS011;75548;42.444;27.488;2024-02-04T16:07:02;28.90;;;13.93;;
85175;SDS011;75548;42.444;27.488;2024-02-04T16:10:28;11.60;;;6.07;;
85175;SDS011;75548;42.444;27.488;2024-02-04T16:13:53;5.40;;;4.45;;
85175;SDS011;75548;42.444;27.488;2024-02-04T16:17:19;8.55;;;4.82;;
85175;SDS011;75548;42.444;27.488;2024-02-04T16:20:44;7.13;;;4.95;;
85175;SDS011;75548;42.444;27.488;2024-02-04T16:24:10;6.22;;;4.53;;
85175;SDS011;75548;42.444;27.488;2024-02-04T16:27:35;8.20;;;5.28;;
85175;SDS011;75548;42.444;27.488;2024-02-04T16:31:00;5.13;;;4.40;;
85175;SDS011;75548;42.444;27.488;2024-02-04T16:34:26;7.22;;;4.55;;
85175;SDS011;75548;42.444;27.488;2024-02-04T16:37:51;4.93;;;3.60;;
85175;SDS011;75548;42.444;27.488;2024-02-04T16:41:17;6.82;;;5.28;;
85175;SDS011;75548;42.444;27.488;2024-02-04T16:44:42;10.38;;;6.30;;
85175;SDS011;75548;42.444;27.488;2024-02-04T16:48:08;6.97;;;4.68;;
85175;SDS011;75548;42.444;27.488;2024-02-04T16:51:39;8.00;;;5.93;;
85175;SDS011;75548;42.444;27.488;2024-02-04T16:55:04;8.70;;;5.55;;
85175;SDS011;75548;42.444;27.488;2024-02-04T16:58:30;7.35;;;5.20;;
85175;SDS011;75548;42.444;27.488;2024-02-04T17:01:55;6.93;;;4.90;;
85175;SDS011;75548;42.444;27.488;2024-02-04T17:05:21;6.05;;;4.00;;
85175;SDS011;75548;42.444;27.488;2024-02-04T17:08:46;6.53;;;3.78;;
85175;SDS011;75548;42.444;27.488;2024-02-04T17:12:12;7.22;;;3.83;;
85175;SDS011;75548;42.444;27.488;2024-02-04T17:15:37;6.68;;;3.83;;
85175;SDS011;75548;42.444;27.488;2024-02-04T17:19:09;5.95;;;3.80;;
85175;SDS011;75548;42.444;27.488;2024-02-04T17:22:12;5.00;;;3.53;;
85175;SDS011;75548;42.444;27.488;2024-02-04T17:25:37;5.57;;;3.65;;
85175;SDS011;75548;42.444;27.488;2024-02-04T17:29:05;6.85;;;5.35;;
85175;SDS011;75548;42.444;27.488;2024-02-04T17:32:30;6.78;;;5.30;;
85175;SDS011;75548;42.444;27.488;2024-02-04T17:35:56;6.28;;;4.43;;
85175;SDS011;75548;42.444;27.488;2024-02-04T17:39:21;7.53;;;4.85;;
85175;SDS011;75548;42.444;27.488;2024-02-04T17:42:46;6.07;;;4.32;;
85175;SDS011;75548;42.444;27.488;2024-02-04T17:46:12;6.32;;;4.65;;
85175;SDS011;75548;42.444;27.488;2024-02-04T17:49:37;7.63;;;4.93;;
85175;SDS011;75548;42.444;27.488;2024-02-04T17:53:03;7.63;;;4.85;;
85175;SDS011;75548;42.444;27.488;2024-02-04T17:56:28;7.60;;;5.10;;
85175;SDS011;75548;42.444;27.488;2024-02-04T17:59:53;8.57;;;4.90;;
85175;SDS011;75548;42.444;27.488;2024-02-04T18:03:19;10.55;;;8.00;;
85175;SDS011;75548;42.444;27.488;2024-02-04T18:06:44;6.78;;;4.75;;
85175;SDS011;75548;42.444;27.488;2024-02-04T18:10:10;6.85;;;5.00;;
85175;SDS011;75548;42.444;27.488;2024-02-04T18:13:35;5.85;;;4.18;;
85175;SDS011;75548;42.444;27.488;2024-02-04T18:17:01;7.05;;;5.30;;
85175;SDS011;75548;42.444;27.488;2024-02-04T18:20:26;6.10;;;4.18;;
85175;SDS011;75548;42.444;27.488;2024-02-04T18:23:52;5.85;;;4.10;;
85175;SDS011;75548;42.444;27.488;2024-02-04T18:27:17;6.15;;;4.80;;
85175;SDS011;75548;42.444;27.488;2024-02-04T18:30:42;6.15;;;4.03;;
85175;SDS011;75548;42.444;27.488;2024-02-04T18:34:08;6.20;;;3.40;;
85175;SDS011;75548;42.444;27.488;2024-02-04T18:37:33;6.63;;;4.82;;
85175;SDS011;75548;42.444;27.488;2024-02-04T18:40:58;10.10;;;8.60;;
85175;SDS011;75548;42.444;27.488;2024-02-04T18:44:27;6.28;;;5.50;;
85175;SDS011;75548;42.444;27.488;2024-02-04T18:47:52;5.47;;;3.80;;
85175;SDS011;75548;42.444;27.488;2024-02-04T18:51:18;7.40;;;4.45;;
85175;SDS011;75548;42.444;27.488;2024-02-04T18:54:43;7.95;;;5.00;;
85175;SDS011;75548;42.444;27.488;2024-02-04T18:58:09;7.80;;;5.38;;
85175;SDS011;75548;42.444;27.488;2024-02-04T19:00:34;7.20;;;5.05;;
85175;SDS011;75548;42.444;27.488;2024-02-04T19:03:00;6.00;;;4.15;;
85175;SDS011;75548;42.444;27.488;2024-02-04T19:05:26;7.57;;;5.60;;
85175;SDS011;75548;42.444;27.488;2024-02-04T19:07:52;7.25;;;5.15;;
85175;SDS011;75548;42.444;27.488;2024-02-04T19:10:18;6.45;;;4.80;;
85175;SDS011;75548;42.444;27.488;2024-02-04T19:12:45;6.80;;;4.57;;
85175;SDS011;75548;42.444;27.488;2024-02-04T19:15:12;5.57;;;3.92;;
85175;SDS011;75548;42.444;27.488;2024-02-04T19:17:38;5.45;;;4.40;;
85175;SDS011;75548;42.444;27.488;2024-02-04T19:20:05;5.13;;;3.47;;
85175;SDS011;75548;42.444;27.488;2024-02-04T19:23:30;6.10;;;3.75;;
85175;SDS011;75548;42.444;27.488;2024-02-04T19:26:56;5.88;;;3.95;;
85175;SDS011;75548;42.444;27.488;2024-02-04T19:30:22;6.05;;;5.07;;
85175;SDS011;75548;42.444;27.488;2024-02-04T19:33:46;6.63;;;4.50;;
85175;SDS011;75548;42.444;27.488;2024-02-04T19:37:12;7.88;;;4.03;;
85175;SDS011;75548;42.444;27.488;2024-02-04T19:40:37;6.22;;;4.00;;
85175;SDS011;75548;42.444;27.488;2024-02-04T19:44:03;7.00;;;4.72;;
85175;SDS011;75548;42.444;27.488;2024-02-04T19:47:28;11.43;;;7.35;;
85175;SDS011;75548;42.444;27.488;2024-02-04T19:50:53;12.73;;;7.68;;
85175;SDS011;75548;42.444;27.488;2024-02-04T19:54:19;7.43;;;4.20;;
85175;SDS011;75548;42.444;27.488;2024-02-04T19:57:44;7.50;;;6.07;;
85175;SDS011;75548;42.444;27.488;2024-02-04T20:01:10;6.65;;;4.45;;
85175;SDS011;75548;42.444;27.488;2024-02-04T20:04:35;4.97;;;3.63;;
85175;SDS011;75548;42.444;27.488;2024-02-04T20:08:00;5.32;;;3.92;;
85175;SDS011;75548;42.444;27.488;2024-02-04T20:11:26;6.13;;;4.20;;
85175;SDS011;75548;42.444;27.488;2024-02-04T20:14:51;6.40;;;3.92;;